sensor_id;sensor_type;location;lat;lon;timestamp;P1;durP1;ratioP1;P2;durP2;ratioP2
28920;SDS011;16035;53.594;9.952;2023-07-31T00:01:38;2.67;;;1.00;;
28920;SDS011;16035;53.594;9.952;2023-07-31T00:03:38;4.10;;;1.20;;
28920;SDS011;16035;53.594;9.952;2023-07-31T00:05:38;1.70;;;1.10;;
28920;SDS011;16035;53.594;9.952;2023-07-31T00:07:39;9.30;;;1.43;;
28920;SDS011;16035;53.594;9.952;2023-07-31T00:09:39;4.43;;;1.20;;
28920;SDS011;16035;53.594;9.952;2023-07-31T00:11:39;6.25;;;1.00;;
28920;SDS011;16035;53.594;9.952;2023-07-31T00:13:40;4.23;;;1.20;;
28920;SDS011;16035;53.594;9.952;2023-07-31T00:15:40;6.27;;;1.70;;
28920;SDS011;16035;53.594;9.952;2023-07-31T00:17:40;2.23;;;1.30;;
28920;SDS011;16035;53.594;9.952;2023-07-31T00:19:41;4.20;;;1.37;;
28920;SDS011;16035;53.594;9.952;2023-07-31T00:21:41;5.27;;;1.30;;
28920;SDS011;16035;53.594;9.952;2023-07-31T00:23:41;1.80;;;1.07;;
28920;SDS011;16035;53.594;9.952;2023-07-31T00:25:42;1.87;;;0.93;;
28920;SDS011;16035;53.594;9.952;2023-07-31T00:27:42;4.27;;;1.30;;
28920;SDS011;16035;53.594;9.952;2023-07-31T00:29:44;4.72;;;1.25;;
28920;SDS011;16035;53.594;9.952;2023-07-31T00:31:44;6.43;;;1.27;;
28920;SDS011;16035;53.594;9.952;2023-07-31T00:33:45;5.80;;;1.33;;
28920;SDS011;16035;53.594;9.952;2023-07-31T00:35:45;4.40;;;1.23;;
28920;SDS011;16035;53.594;9.952;2023-07-31T00:37:45;1.77;;;1.10;;
28920;SDS011;16035;53.594;9.952;2023-07-31T00:39:46;5.13;;;1.20;;
28920;SDS011;16035;53.594;9.952;2023-07-31T00:41:46;2.53;;;1.30;;
28920;SDS011;16035;53.594;9.952;2023-07-31T00:43:46;3.00;;;1.10;;
28920;SDS011;16035;53.594;9.952;2023-07-31T00:45:47;2.20;;;1.20;;
28920;SDS011;16035;53.594;9.952;2023-07-31T00:47:47;3.43;;;1.00;;
28920;SDS011;16035;53.594;9.952;2023-07-31T00:49:47;4.73;;;1.27;;
28920;SDS011;16035;53.594;9.952;2023-07-31T00:51:48;5.50;;;1.10;;
28920;SDS011;16035;53.594;9.952;2023-07-31T00:53:48;3.93;;;1.03;;
28920;SDS011;16035;53.594;9.952;2023-07-31T00:55:49;10.83;;;1.87;;
28920;SDS011;16035;53.594;9.952;2023-07-31T00:57:49;7.00;;;1.60;;
28920;SDS011;16035;53.594;9.952;2023-07-31T00:59:51;1.55;;;0.98;;
28920;SDS011;16035;53.594;9.952;2023-07-31T01:01:52;5.77;;;1.40;;
28920;SDS011;16035;53.594;9.952;2023-07-31T01:03:52;5.83;;;1.30;;
28920;SDS011;16035;53.594;9.952;2023-07-31T01:08:08;4.32;;;1.35;;
28920;SDS011;16035;53.594;9.952;2023-07-31T01:10:20;7.13;;;1.70;;
28920;SDS011;16035;53.594;9.952;2023-07-31T01:12:26;1.30;;;0.70;;
28920;SDS011;16035;53.594;9.952;2023-07-31T01:14:28;3.33;;;1.30;;
28920;SDS011;16035;53.594;9.952;2023-07-31T01:16:29;7.43;;;1.10;;
28920;SDS011;16035;53.594;9.952;2023-07-31T01:18:29;4.67;;;1.10;;
28920;SDS011;16035;53.594;9.952;2023-07-31T01:20:29;6.38;;;1.42;;
28920;SDS011;16035;53.594;9.952;2023-07-31T01:27:49;5.90;;;1.70;;
28920;SDS011;16035;53.594;9.952;2023-07-31T01:29:58;7.70;;;1.42;;
28920;SDS011;16035;53.594;9.952;2023-07-31T01:32:04;6.75;;;1.30;;
28920;SDS011;16035;53.594;9.952;2023-07-31T01:34:06;2.42;;;0.98;;
28920;SDS011;16035;53.594;9.952;2023-07-31T01:36:08;5.18;;;1.40;;
28920;SDS011;16035;53.594;9.952;2023-07-31T01:38:10;2.67;;;1.88;;
28920;SDS011;16035;53.594;9.952;2023-07-31T01:40:10;6.30;;;1.47;;
28920;SDS011;16035;53.594;9.952;2023-07-31T01:42:11;3.07;;;1.47;;
28920;SDS011;16035;53.594;9.952;2023-07-31T01:44:11;2.73;;;1.40;;
28920;SDS011;16035;53.594;9.952;2023-07-31T01:46:11;6.30;;;1.37;;
28920;SDS011;16035;53.594;9.952;2023-07-31T01:48:12;3.67;;;1.17;;
28920;SDS011;16035;53.594;9.952;2023-07-31T01:50:12;4.57;;;1.20;;
28920;SDS011;16035;53.594;9.952;2023-07-31T01:52:12;2.83;;;1.20;;
28920;SDS011;16035;53.594;9.952;2023-07-31T01:54:13;3.10;;;1.30;;
28920;SDS011;16035;53.594;9.952;2023-07-31T01:56:13;3.57;;;1.50;;
28920;SDS011;16035;53.594;9.952;2023-07-31T01:58:14;1.95;;;1.30;;
28920;SDS011;16035;53.594;9.952;2023-07-31T02:00:14;3.73;;;1.33;;
28920;SDS011;16035;53.594;9.952;2023-07-31T02:02:15;4.70;;;1.30;;
28920;SDS011;16035;53.594;9.952;2023-07-31T02:04:16;3.47;;;1.42;;
28920;SDS011;16035;53.594;9.952;2023-07-31T02:06:16;4.57;;;1.60;;
28920;SDS011;16035;53.594;9.952;2023-07-31T02:08:17;3.00;;;1.30;;
28920;SDS011;16035;53.594;9.952;2023-07-31T02:10:17;4.47;;;1.63;;
28920;SDS011;16035;53.594;9.952;2023-07-31T02:12:17;4.30;;;1.53;;
28920;SDS011;16035;53.594;9.952;2023-07-31T02:14:18;5.27;;;1.60;;
28920;SDS011;16035;53.594;9.952;2023-07-31T02:16:18;7.57;;;1.83;;
28920;SDS011;16035;53.594;9.952;2023-07-31T02:18:18;7.20;;;1.73;;
28920;SDS011;16035;53.594;9.952;2023-07-31T02:20:19;3.77;;;1.37;;
28920;SDS011;16035;53.594;9.952;2023-07-31T02:22:19;1.73;;;1.30;;
28920;SDS011;16035;53.594;9.952;2023-07-31T02:24:20;4.13;;;1.73;;
28920;SDS011;16035;53.594;9.952;2023-07-31T02:26:20;5.13;;;1.20;;
28920;SDS011;16035;53.594;9.952;2023-07-31T02:28:20;4.30;;;1.43;;
28920;SDS011;16035;53.594;9.952;2023-07-31T02:30:20;4.47;;;1.30;;
28920;SDS011;16035;53.594;9.952;2023-07-31T02:32:21;2.87;;;1.33;;
28920;SDS011;16035;53.594;9.952;2023-07-31T02:34:21;4.67;;;1.47;;
28920;SDS011;16035;53.594;9.952;2023-07-31T02:36:22;5.83;;;1.50;;
28920;SDS011;16035;53.594;9.952;2023-07-31T02:38:22;5.63;;;1.60;;
28920;SDS011;16035;53.594;9.952;2023-07-31T02:40:22;6.70;;;1.73;;
28920;SDS011;16035;53.594;9.952;2023-07-31T02:42:23;4.80;;;1.70;;
28920;SDS011;16035;53.594;9.952;2023-07-31T02:44:23;2.57;;;1.43;;
28920;SDS011;16035;53.594;9.952;2023-07-31T02:46:24;2.73;;;1.20;;
28920;SDS011;16035;53.594;9.952;2023-07-31T02:48:24;4.18;;;1.50;;
28920;SDS011;16035;53.594;9.952;2023-07-31T02:50:25;3.43;;;1.63;;
28920;SDS011;16035;53.594;9.952;2023-07-31T02:52:25;7.67;;;1.60;;
28920;SDS011;16035;53.594;9.952;2023-07-31T02:54:26;5.77;;;1.70;;
28920;SDS011;16035;53.594;9.952;2023-07-31T02:56:26;6.33;;;1.50;;
28920;SDS011;16035;53.594;9.952;2023-07-31T02:58:26;4.20;;;1.43;;
28920;SDS011;16035;53.594;9.952;2023-07-31T03:00:27;3.33;;;1.77;;
28920;SDS011;16035;53.594;9.952;2023-07-31T03:02:27;3.75;;;2.03;;
28920;SDS011;16035;53.594;9.952;2023-07-31T03:04:28;4.67;;;1.73;;
28920;SDS011;16035;53.594;9.952;2023-07-31T03:06:28;7.10;;;1.80;;
28920;SDS011;16035;53.594;9.952;2023-07-31T03:08:28;4.47;;;2.13;;
28920;SDS011;16035;53.594;9.952;2023-07-31T03:10:29;6.03;;;1.80;;
28920;SDS011;16035;53.594;9.952;2023-07-31T03:12:29;5.60;;;1.53;;
28920;SDS011;16035;53.594;9.952;2023-07-31T03:14:29;4.17;;;1.30;;
28920;SDS011;16035;53.594;9.952;2023-07-31T03:16:30;5.63;;;1.60;;
28920;SDS011;16035;53.594;9.952;2023-07-31T03:18:30;3.43;;;1.63;;
28920;SDS011;16035;53.594;9.952;2023-07-31T03:20:30;5.37;;;1.93;;
28920;SDS011;16035;53.594;9.952;2023-07-31T03:22:31;2.17;;;1.37;;
28920;SDS011;16035;53.594;9.952;2023-07-31T03:24:31;8.63;;;1.80;;
28920;SDS011;16035;53.594;9.952;2023-07-31T03:26:32;2.50;;;1.40;;
28920;SDS011;16035;53.594;9.952;2023-07-31T03:28:32;5.00;;;1.60;;
28920;SDS011;16035;53.594;9.952;2023-07-31T03:30:34;4.77;;;1.77;;
28920;SDS011;16035;53.594;9.952;2023-07-31T03:32:36;2.60;;;1.27;;
28920;SDS011;16035;53.594;9.952;2023-07-31T03:34:37;1.57;;;1.17;;
28920;SDS011;16035;53.594;9.952;2023-07-31T03:36:37;4.67;;;1.40;;
28920;SDS011;16035;53.594;9.952;2023-07-31T03:38:38;2.87;;;1.50;;
28920;SDS011;16035;53.594;9.952;2023-07-31T03:40:38;7.57;;;2.07;;
28920;SDS011;16035;53.594;9.952;2023-07-31T03:42:38;3.77;;;1.70;;
28920;SDS011;16035;53.594;9.952;2023-07-31T03:44:39;4.50;;;1.70;;
28920;SDS011;16035;53.594;9.952;2023-07-31T03:46:39;3.73;;;1.77;;
28920;SDS011;16035;53.594;9.952;2023-07-31T03:48:40;6.80;;;1.77;;
28920;SDS011;16035;53.594;9.952;2023-07-31T03:50:40;3.83;;;1.67;;
28920;SDS011;16035;53.594;9.952;2023-07-31T03:52:41;3.33;;;1.67;;
28920;SDS011;16035;53.594;9.952;2023-07-31T03:54:41;3.97;;;1.30;;
28920;SDS011;16035;53.594;9.952;2023-07-31T03:56:44;2.55;;;1.40;;
28920;SDS011;16035;53.594;9.952;2023-07-31T03:58:44;2.83;;;1.50;;
28920;SDS011;16035;53.594;9.952;2023-07-31T04:00:45;4.40;;;1.40;;
28920;SDS011;16035;53.594;9.952;2023-07-31T04:02:45;1.87;;;1.13;;
28920;SDS011;16035;53.594;9.952;2023-07-31T04:04:46;6.00;;;1.70;;
28920;SDS011;16035;53.594;9.952;2023-07-31T04:06:46;5.00;;;1.80;;
28920;SDS011;16035;53.594;9.952;2023-07-31T04:08:46;4.13;;;1.70;;
28920;SDS011;16035;53.594;9.952;2023-07-31T04:10:46;3.93;;;1.30;;
28920;SDS011;16035;53.594;9.952;2023-07-31T04:12:47;2.47;;;1.47;;
28920;SDS011;16035;53.594;9.952;2023-07-31T04:14:47;2.93;;;1.30;;
28920;SDS011;16035;53.594;9.952;2023-07-31T04:16:47;3.63;;;1.23;;
28920;SDS011;16035;53.594;9.952;2023-07-31T04:18:49;3.63;;;1.90;;
28920;SDS011;16035;53.594;9.952;2023-07-31T04:20:49;3.30;;;1.38;;
28920;SDS011;16035;53.594;9.952;2023-07-31T04:22:50;3.73;;;1.50;;
28920;SDS011;16035;53.594;9.952;2023-07-31T04:24:50;1.93;;;1.00;;
28920;SDS011;16035;53.594;9.952;2023-07-31T04:26:51;2.40;;;1.47;;
28920;SDS011;16035;53.594;9.952;2023-07-31T04:28:51;3.13;;;1.35;;
28920;SDS011;16035;53.594;9.952;2023-07-31T04:30:52;4.83;;;1.40;;
28920;SDS011;16035;53.594;9.952;2023-07-31T04:32:53;3.50;;;1.60;;
28920;SDS011;16035;53.594;9.952;2023-07-31T04:34:53;2.37;;;1.10;;
28920;SDS011;16035;53.594;9.952;2023-07-31T04:36:54;3.67;;;1.30;;
28920;SDS011;16035;53.594;9.952;2023-07-31T04:38:54;2.63;;;1.37;;
28920;SDS011;16035;53.594;9.952;2023-07-31T04:40:54;1.90;;;1.17;;
28920;SDS011;16035;53.594;9.952;2023-07-31T04:42:54;3.30;;;1.43;;
28920;SDS011;16035;53.594;9.952;2023-07-31T04:44:55;3.70;;;1.57;;
28920;SDS011;16035;53.594;9.952;2023-07-31T04:46:55;3.77;;;1.43;;
28920;SDS011;16035;53.594;9.952;2023-07-31T04:48:56;2.80;;;1.10;;
28920;SDS011;16035;53.594;9.952;2023-07-31T04:50:56;3.85;;;1.35;;
28920;SDS011;16035;53.594;9.952;2023-07-31T04:52:57;1.27;;;1.03;;
28920;SDS011;16035;53.594;9.952;2023-07-31T04:54:58;1.65;;;1.17;;
28920;SDS011;16035;53.594;9.952;2023-07-31T04:56:58;2.50;;;1.03;;
28920;SDS011;16035;53.594;9.952;2023-07-31T04:58:59;1.37;;;0.87;;
28920;SDS011;16035;53.594;9.952;2023-07-31T05:00:59;3.43;;;1.30;;
28920;SDS011;16035;53.594;9.952;2023-07-31T05:02:59;2.63;;;1.33;;
28920;SDS011;16035;53.594;9.952;2023-07-31T05:05:00;1.17;;;0.97;;
28920;SDS011;16035;53.594;9.952;2023-07-31T05:07:00;5.97;;;1.77;;
28920;SDS011;16035;53.594;9.952;2023-07-31T05:09:00;1.30;;;1.10;;
28920;SDS011;16035;53.594;9.952;2023-07-31T05:11:00;1.40;;;1.30;;
28920;SDS011;16035;53.594;9.952;2023-07-31T05:13:02;2.05;;;1.15;;
28920;SDS011;16035;53.594;9.952;2023-07-31T05:15:02;1.53;;;1.07;;
28920;SDS011;16035;53.594;9.952;2023-07-31T05:17:03;4.47;;;1.23;;
28920;SDS011;16035;53.594;9.952;2023-07-31T05:19:04;1.03;;;1.00;;
28920;SDS011;16035;53.594;9.952;2023-07-31T05:21:04;1.50;;;1.03;;
28920;SDS011;16035;53.594;9.952;2023-07-31T05:23:04;1.30;;;1.07;;
28920;SDS011;16035;53.594;9.952;2023-07-31T05:25:05;1.83;;;1.13;;
28920;SDS011;16035;53.594;9.952;2023-07-31T05:27:05;2.03;;;0.90;;
28920;SDS011;16035;53.594;9.952;2023-07-31T05:29:06;3.00;;;1.20;;
28920;SDS011;16035;53.594;9.952;2023-07-31T05:31:06;1.60;;;1.03;;
28920;SDS011;16035;53.594;9.952;2023-07-31T05:33:07;1.90;;;1.30;;
28920;SDS011;16035;53.594;9.952;2023-07-31T05:35:07;2.33;;;1.10;;
28920;SDS011;16035;53.594;9.952;2023-07-31T05:37:09;1.20;;;1.00;;
28920;SDS011;16035;53.594;9.952;2023-07-31T05:39:10;1.40;;;1.10;;
28920;SDS011;16035;53.594;9.952;2023-07-31T05:41:11;1.50;;;0.93;;
28920;SDS011;16035;53.594;9.952;2023-07-31T05:43:12;3.35;;;0.90;;
28920;SDS011;16035;53.594;9.952;2023-07-31T05:45:12;1.23;;;1.00;;
28920;SDS011;16035;53.594;9.952;2023-07-31T05:47:13;2.03;;;1.05;;
28920;SDS011;16035;53.594;9.952;2023-07-31T05:49:13;3.10;;;1.00;;
28920;SDS011;16035;53.594;9.952;2023-07-31T05:51:14;0.87;;;0.87;;
28920;SDS011;16035;53.594;9.952;2023-07-31T05:53:14;2.27;;;1.30;;
28920;SDS011;16035;53.594;9.952;2023-07-31T05:55:14;1.57;;;1.00;;
28920;SDS011;16035;53.594;9.952;2023-07-31T05:57:16;1.40;;;1.10;;
28920;SDS011;16035;53.594;9.952;2023-07-31T05:59:16;2.03;;;1.30;;
28920;SDS011;16035;53.594;9.952;2023-07-31T06:01:17;1.70;;;1.30;;
28920;SDS011;16035;53.594;9.952;2023-07-31T06:03:17;1.50;;;1.20;;
28920;SDS011;16035;53.594;9.952;2023-07-31T06:05:17;1.13;;;0.90;;
28920;SDS011;16035;53.594;9.952;2023-07-31T06:07:18;2.10;;;1.33;;
28920;SDS011;16035;53.594;9.952;2023-07-31T06:09:19;1.60;;;1.15;;
28920;SDS011;16035;53.594;9.952;2023-07-31T06:11:20;1.30;;;1.05;;
28920;SDS011;16035;53.594;9.952;2023-07-31T06:13:21;1.67;;;1.20;;
28920;SDS011;16035;53.594;9.952;2023-07-31T06:15:21;3.63;;;1.10;;
28920;SDS011;16035;53.594;9.952;2023-07-31T06:17:22;1.50;;;1.30;;
28920;SDS011;16035;53.594;9.952;2023-07-31T06:19:22;1.77;;;1.30;;
28920;SDS011;16035;53.594;9.952;2023-07-31T06:21:22;1.97;;;1.07;;
28920;SDS011;16035;53.594;9.952;2023-07-31T06:23:23;2.83;;;1.40;;
28920;SDS011;16035;53.594;9.952;2023-07-31T06:25:23;1.83;;;1.30;;
28920;SDS011;16035;53.594;9.952;2023-07-31T06:27:23;1.73;;;1.30;;
28920;SDS011;16035;53.594;9.952;2023-07-31T06:29:24;2.17;;;1.63;;
28920;SDS011;16035;53.594;9.952;2023-07-31T06:31:24;1.50;;;1.33;;
28920;SDS011;16035;53.594;9.952;2023-07-31T06:33:25;2.23;;;1.47;;
28920;SDS011;16035;53.594;9.952;2023-07-31T06:35:25;2.57;;;1.23;;
28920;SDS011;16035;53.594;9.952;2023-07-31T06:37:25;2.40;;;1.40;;
28920;SDS011;16035;53.594;9.952;2023-07-31T06:39:26;3.90;;;1.33;;
28920;SDS011;16035;53.594;9.952;2023-07-31T06:41:26;1.40;;;1.30;;
28920;SDS011;16035;53.594;9.952;2023-07-31T06:43:26;1.70;;;1.27;;
28920;SDS011;16035;53.594;9.952;2023-07-31T06:45:27;1.63;;;1.53;;
28920;SDS011;16035;53.594;9.952;2023-07-31T06:47:27;2.33;;;1.20;;
28920;SDS011;16035;53.594;9.952;2023-07-31T06:49:27;1.87;;;1.30;;
28920;SDS011;16035;53.594;9.952;2023-07-31T06:51:28;5.53;;;3.77;;
28920;SDS011;16035;53.594;9.952;2023-07-31T06:53:28;7.70;;;4.87;;
28920;SDS011;16035;53.594;9.952;2023-07-31T06:55:28;2.03;;;1.80;;
28920;SDS011;16035;53.594;9.952;2023-07-31T06:57:29;3.47;;;1.60;;
28920;SDS011;16035;53.594;9.952;2023-07-31T06:59:29;2.73;;;1.43;;
28920;SDS011;16035;53.594;9.952;2023-07-31T07:01:29;3.30;;;1.67;;
28920;SDS011;16035;53.594;9.952;2023-07-31T07:03:30;3.17;;;1.30;;
28920;SDS011;16035;53.594;9.952;2023-07-31T07:05:30;2.73;;;1.67;;
28920;SDS011;16035;53.594;9.952;2023-07-31T07:07:31;2.37;;;1.20;;
28920;SDS011;16035;53.594;9.952;2023-07-31T07:09:31;2.23;;;1.50;;
28920;SDS011;16035;53.594;9.952;2023-07-31T07:11:31;6.47;;;1.50;;
28920;SDS011;16035;53.594;9.952;2023-07-31T07:13:31;1.57;;;1.27;;
28920;SDS011;16035;53.594;9.952;2023-07-31T07:15:32;1.67;;;1.20;;
28920;SDS011;16035;53.594;9.952;2023-07-31T07:17:32;1.73;;;1.10;;
28920;SDS011;16035;53.594;9.952;2023-07-31T07:19:32;1.87;;;1.20;;
28920;SDS011;16035;53.594;9.952;2023-07-31T07:21:33;1.20;;;1.10;;
28920;SDS011;16035;53.594;9.952;2023-07-31T07:23:33;1.23;;;1.03;;
28920;SDS011;16035;53.594;9.952;2023-07-31T07:25:34;1.57;;;1.13;;
28920;SDS011;16035;53.594;9.952;2023-07-31T07:27:38;1.30;;;1.20;;
28920;SDS011;16035;53.594;9.952;2023-07-31T07:29:38;1.13;;;1.03;;
28920;SDS011;16035;53.594;9.952;2023-07-31T07:31:38;1.63;;;1.07;;
28920;SDS011;16035;53.594;9.952;2023-07-31T07:33:39;3.10;;;2.00;;
28920;SDS011;16035;53.594;9.952;2023-07-31T07:35:39;1.53;;;1.40;;
28920;SDS011;16035;53.594;9.952;2023-07-31T07:37:40;1.20;;;1.10;;
28920;SDS011;16035;53.594;9.952;2023-07-31T07:39:40;1.00;;;0.90;;
28920;SDS011;16035;53.594;9.952;2023-07-31T07:41:41;1.00;;;1.00;;
28920;SDS011;16035;53.594;9.952;2023-07-31T07:43:41;1.83;;;0.80;;
28920;SDS011;16035;53.594;9.952;2023-07-31T07:45:42;0.97;;;0.87;;
28920;SDS011;16035;53.594;9.952;2023-07-31T07:47:42;2.27;;;1.00;;
28920;SDS011;16035;53.594;9.952;2023-07-31T07:49:42;1.97;;;1.23;;
28920;SDS011;16035;53.594;9.952;2023-07-31T07:51:43;1.70;;;0.97;;
28920;SDS011;16035;53.594;9.952;2023-07-31T07:53:43;1.70;;;1.17;;
28920;SDS011;16035;53.594;9.952;2023-07-31T07:55:43;0.80;;;0.80;;
28920;SDS011;16035;53.594;9.952;2023-07-31T07:57:44;10.60;;;5.53;;
28920;SDS011;16035;53.594;9.952;2023-07-31T07:59:44;5.07;;;2.58;;
28920;SDS011;16035;53.594;9.952;2023-07-31T08:01:45;1.60;;;1.30;;
28920;SDS011;16035;53.594;9.952;2023-07-31T08:03:46;1.60;;;1.30;;
28920;SDS011;16035;53.594;9.952;2023-07-31T08:05:47;1.73;;;1.30;;
28920;SDS011;16035;53.594;9.952;2023-07-31T08:07:48;1.30;;;1.20;;
28920;SDS011;16035;53.594;9.952;2023-07-31T08:09:48;1.53;;;1.37;;
28920;SDS011;16035;53.594;9.952;2023-07-31T08:11:48;1.50;;;1.13;;
28920;SDS011;16035;53.594;9.952;2023-07-31T08:13:49;2.43;;;1.47;;
28920;SDS011;16035;53.594;9.952;2023-07-31T08:15:49;1.00;;;0.90;;
28920;SDS011;16035;53.594;9.952;2023-07-31T08:17:50;3.20;;;1.30;;
28920;SDS011;16035;53.594;9.952;2023-07-31T08:19:50;1.20;;;1.03;;
28920;SDS011;16035;53.594;9.952;2023-07-31T08:21:50;1.73;;;1.13;;
28920;SDS011;16035;53.594;9.952;2023-07-31T08:23:51;3.53;;;1.20;;
28920;SDS011;16035;53.594;9.952;2023-07-31T08:25:51;1.20;;;1.10;;
28920;SDS011;16035;53.594;9.952;2023-07-31T08:27:51;2.77;;;1.23;;
28920;SDS011;16035;53.594;9.952;2023-07-31T08:29:52;3.20;;;1.25;;
28920;SDS011;16035;53.594;9.952;2023-07-31T08:31:53;3.00;;;1.00;;
28920;SDS011;16035;53.594;9.952;2023-07-31T08:33:53;0.87;;;0.83;;
28920;SDS011;16035;53.594;9.952;2023-07-31T08:35:53;1.43;;;1.20;;
28920;SDS011;16035;53.594;9.952;2023-07-31T08:37:54;1.03;;;0.93;;
28920;SDS011;16035;53.594;9.952;2023-07-31T08:39:54;1.93;;;1.00;;
28920;SDS011;16035;53.594;9.952;2023-07-31T08:41:58;1.00;;;0.90;;
28920;SDS011;16035;53.594;9.952;2023-07-31T08:43:59;0.80;;;0.77;;
28920;SDS011;16035;53.594;9.952;2023-07-31T08:46:00;1.13;;;0.80;;
28920;SDS011;16035;53.594;9.952;2023-07-31T08:48:02;2.53;;;0.90;;
28920;SDS011;16035;53.594;9.952;2023-07-31T08:50:02;1.23;;;0.80;;
28920;SDS011;16035;53.594;9.952;2023-07-31T08:52:04;1.10;;;0.82;;
28920;SDS011;16035;53.594;9.952;2023-07-31T08:54:05;1.95;;;1.40;;
28920;SDS011;16035;53.594;9.952;2023-07-31T08:56:06;5.47;;;3.70;;
28920;SDS011;16035;53.594;9.952;2023-07-31T08:58:06;1.30;;;1.17;;
28920;SDS011;16035;53.594;9.952;2023-07-31T09:00:07;1.43;;;0.90;;
28920;SDS011;16035;53.594;9.952;2023-07-31T09:02:09;1.38;;;0.82;;
28920;SDS011;16035;53.594;9.952;2023-07-31T09:04:10;1.52;;;1.00;;
28920;SDS011;16035;53.594;9.952;2023-07-31T09:06:12;0.73;;;0.60;;
28920;SDS011;16035;53.594;9.952;2023-07-31T09:08:18;0.95;;;0.63;;
28920;SDS011;16035;53.594;9.952;2023-07-31T09:10:20;1.83;;;0.75;;
28920;SDS011;16035;53.594;9.952;2023-07-31T09:12:20;2.00;;;1.00;;
28920;SDS011;16035;53.594;9.952;2023-07-31T09:14:21;2.80;;;0.63;;
28920;SDS011;16035;53.594;9.952;2023-07-31T09:16:27;0.77;;;0.70;;
28920;SDS011;16035;53.594;9.952;2023-07-31T09:18:30;1.23;;;0.50;;
28920;SDS011;16035;53.594;9.952;2023-07-31T09:20:30;1.47;;;0.57;;
28920;SDS011;16035;53.594;9.952;2023-07-31T09:22:34;1.48;;;0.80;;
28920;SDS011;16035;53.594;9.952;2023-07-31T09:24:34;0.90;;;0.73;;
28920;SDS011;16035;53.594;9.952;2023-07-31T09:26:35;0.70;;;0.70;;
28920;SDS011;16035;53.594;9.952;2023-07-31T09:28:37;0.70;;;0.60;;
28920;SDS011;16035;53.594;9.952;2023-07-31T09:30:47;2.87;;;0.87;;
28920;SDS011;16035;53.594;9.952;2023-07-31T09:32:49;0.98;;;0.60;;
28920;SDS011;16035;53.594;9.952;2023-07-31T09:36:50;1.73;;;0.60;;
28920;SDS011;16035;53.594;9.952;2023-07-31T09:38:53;0.80;;;0.40;;
28920;SDS011;16035;53.594;9.952;2023-07-31T09:40:53;0.60;;;0.60;;
28920;SDS011;16035;53.594;9.952;2023-07-31T09:42:55;0.67;;;0.50;;
28920;SDS011;16035;53.594;9.952;2023-07-31T09:45:07;0.98;;;0.47;;
28920;SDS011;16035;53.594;9.952;2023-07-31T09:47:24;1.05;;;0.80;;
28920;SDS011;16035;53.594;9.952;2023-07-31T09:49:25;2.15;;;0.90;;
28920;SDS011;16035;53.594;9.952;2023-07-31T09:51:28;2.20;;;0.60;;
28920;SDS011;16035;53.594;9.952;2023-07-31T09:53:28;1.20;;;0.80;;
28920;SDS011;16035;53.594;9.952;2023-07-31T09:55:30;0.80;;;0.50;;
28920;SDS011;16035;53.594;9.952;2023-07-31T09:57:31;0.60;;;0.60;;
28920;SDS011;16035;53.594;9.952;2023-07-31T09:59:33;1.20;;;0.70;;
28920;SDS011;16035;53.594;9.952;2023-07-31T10:01:34;0.77;;;0.70;;
28920;SDS011;16035;53.594;9.952;2023-07-31T10:03:35;1.17;;;0.52;;
28920;SDS011;16035;53.594;9.952;2023-07-31T10:05:38;0.57;;;0.50;;
28920;SDS011;16035;53.594;9.952;2023-07-31T10:07:43;0.75;;;0.55;;
28920;SDS011;16035;53.594;9.952;2023-07-31T10:09:50;0.40;;;0.40;;
28920;SDS011;16035;53.594;9.952;2023-07-31T10:11:53;1.88;;;0.55;;
28920;SDS011;16035;53.594;9.952;2023-07-31T10:13:59;1.50;;;0.50;;
28920;SDS011;16035;53.594;9.952;2023-07-31T10:16:00;2.17;;;0.60;;
28920;SDS011;16035;53.594;9.952;2023-07-31T10:18:01;0.50;;;0.40;;
28920;SDS011;16035;53.594;9.952;2023-07-31T10:22:04;0.90;;;0.50;;
28920;SDS011;16035;53.594;9.952;2023-07-31T10:24:06;0.40;;;0.40;;
28920;SDS011;16035;53.594;9.952;2023-07-31T10:26:07;0.22;;;0.22;;
28920;SDS011;16035;53.594;9.952;2023-07-31T10:28:08;0.73;;;0.60;;
28920;SDS011;16035;53.594;9.952;2023-07-31T10:30:12;0.50;;;0.50;;
28920;SDS011;16035;53.594;9.952;2023-07-31T10:32:15;0.32;;;0.32;;
28920;SDS011;16035;53.594;9.952;2023-07-31T10:34:17;0.50;;;0.40;;
28920;SDS011;16035;53.594;9.952;2023-07-31T10:36:18;0.68;;;0.40;;
28920;SDS011;16035;53.594;9.952;2023-07-31T10:38:19;0.60;;;0.40;;
28920;SDS011;16035;53.594;9.952;2023-07-31T10:40:23;0.80;;;0.30;;
28920;SDS011;16035;53.594;9.952;2023-07-31T10:42:29;0.30;;;0.30;;
28920;SDS011;16035;53.594;9.952;2023-07-31T10:44:32;0.52;;;0.30;;
28920;SDS011;16035;53.594;9.952;2023-07-31T10:46:34;0.45;;;0.30;;
28920;SDS011;16035;53.594;9.952;2023-07-31T10:48:34;0.60;;;0.45;;
28920;SDS011;16035;53.594;9.952;2023-07-31T10:50:37;0.30;;;0.20;;
28920;SDS011;16035;53.594;9.952;2023-07-31T10:52:38;2.65;;;0.40;;
28920;SDS011;16035;53.594;9.952;2023-07-31T10:54:39;0.83;;;0.47;;
28920;SDS011;16035;53.594;9.952;2023-07-31T10:56:39;0.90;;;0.67;;
28920;SDS011;16035;53.594;9.952;2023-07-31T10:58:39;0.50;;;0.40;;
28920;SDS011;16035;53.594;9.952;2023-07-31T11:00:44;0.80;;;0.70;;
28920;SDS011;16035;53.594;9.952;2023-07-31T11:03:01;0.60;;;0.40;;
28920;SDS011;16035;53.594;9.952;2023-07-31T11:05:06;0.55;;;0.50;;
28920;SDS011;16035;53.594;9.952;2023-07-31T11:07:08;0.80;;;0.70;;
28920;SDS011;16035;53.594;9.952;2023-07-31T11:09:10;0.50;;;0.50;;
28920;SDS011;16035;53.594;9.952;2023-07-31T11:11:17;0.77;;;0.60;;
28920;SDS011;16035;53.594;9.952;2023-07-31T11:13:18;1.92;;;0.60;;
28920;SDS011;16035;53.594;9.952;2023-07-31T11:15:22;0.43;;;0.43;;
28920;SDS011;16035;53.594;9.952;2023-07-31T11:17:24;0.75;;;0.35;;
28920;SDS011;16035;53.594;9.952;2023-07-31T11:19:25;0.93;;;0.30;;
28920;SDS011;16035;53.594;9.952;2023-07-31T11:21:26;0.20;;;0.20;;
28920;SDS011;16035;53.594;9.952;2023-07-31T11:23:26;0.30;;;0.30;;
28920;SDS011;16035;53.594;9.952;2023-07-31T11:25:28;0.83;;;0.30;;
28920;SDS011;16035;53.594;9.952;2023-07-31T11:27:30;0.68;;;0.30;;
28920;SDS011;16035;53.594;9.952;2023-07-31T11:29:33;0.55;;;0.47;;
28920;SDS011;16035;53.594;9.952;2023-07-31T11:31:33;0.30;;;0.30;;
28920;SDS011;16035;53.594;9.952;2023-07-31T11:33:39;0.73;;;0.30;;
28920;SDS011;16035;53.594;9.952;2023-07-31T11:35:44;0.50;;;0.30;;
28920;SDS011;16035;53.594;9.952;2023-07-31T11:37:46;0.28;;;0.28;;
28920;SDS011;16035;53.594;9.952;2023-07-31T11:39:59;0.65;;;0.40;;
28920;SDS011;16035;53.594;9.952;2023-07-31T11:42:01;0.45;;;0.22;;
28920;SDS011;16035;53.594;9.952;2023-07-31T11:44:02;0.40;;;0.40;;
28920;SDS011;16035;53.594;9.952;2023-07-31T11:46:02;0.40;;;0.40;;
28920;SDS011;16035;53.594;9.952;2023-07-31T11:48:03;0.70;;;0.10;;
28920;SDS011;16035;53.594;9.952;2023-07-31T11:50:04;0.10;;;0.10;;
28920;SDS011;16035;53.594;9.952;2023-07-31T11:52:06;0.10;;;0.10;;
28920;SDS011;16035;53.594;9.952;2023-07-31T11:54:07;0.57;;;0.28;;
28920;SDS011;16035;53.594;9.952;2023-07-31T11:56:13;0.20;;;0.20;;
28920;SDS011;16035;53.594;9.952;2023-07-31T11:58:16;0.28;;;0.20;;
28920;SDS011;16035;53.594;9.952;2023-07-31T12:00:19;0.47;;;0.20;;
28920;SDS011;16035;53.594;9.952;2023-07-31T12:02:20;2.22;;;0.40;;
28920;SDS011;16035;53.594;9.952;2023-07-31T12:04:23;0.70;;;0.40;;
28920;SDS011;16035;53.594;9.952;2023-07-31T12:06:35;0.98;;;0.80;;
28920;SDS011;16035;53.594;9.952;2023-07-31T12:08:39;1.83;;;0.52;;
28920;SDS011;16035;53.594;9.952;2023-07-31T12:10:40;1.15;;;0.70;;
28920;SDS011;16035;53.594;9.952;2023-07-31T12:12:55;0.85;;;0.40;;
28920;SDS011;16035;53.594;9.952;2023-07-31T12:15:15;1.45;;;0.38;;
28920;SDS011;16035;53.594;9.952;2023-07-31T12:17:20;0.55;;;0.40;;
28920;SDS011;16035;53.594;9.952;2023-07-31T12:19:21;1.02;;;0.40;;
28920;SDS011;16035;53.594;9.952;2023-07-31T12:21:30;0.65;;;0.50;;
28920;SDS011;16035;53.594;9.952;2023-07-31T12:23:34;0.63;;;0.30;;